Latest Weather Observations for Merriwa

IDN60801

Issued at 7:05 pm EST Wednesday 23 April 2014 (issued every 30 minutes, with the page automatically refreshed every 10 minutes)

About weather observations | Map of weather stations | Latest weather observations for NSW | Other Formats
Station Details ID: 061287 Name: MERRIWA (ROSCOMMON) Lat: -32.19 Lon: 150.17 Height: 375.0 m
Data from the previous 72 hours. | See also: Recent months at Merriwa
Date/Time
EST
Temp
°C
App
Temp
°C
Dew
Point
Rel
Hum
%
Delta-T
°C
Wind Press
QNH
hPa
Press
MSL
hPa
Rain
since 9 am
mm
Dir
 
Spd
km/h
Gust
km/h
Spd
kts
Gust
kts
23/07:00pm 15.9 15.1 6.6 54 4.6 SSW 0 0 0 0 1017.1 - 0.0
23/06:30pm 15.1 14.2 5.9 54 4.5 SSW 0 0 0 0 1016.9 - 0.0
23/06:00pm 17.0 14.2 5.3 46 5.7 SSW 9 11 5 6 1016.7 1016.2 0.0
23/05:30pm 19.8 17.6 6.2 41 6.9 SW 7 9 4 5 1016.4 - 0.0
23/05:00pm 23.5 21.6 7.6 36 8.5 WSW 7 11 4 6 1016.1 - 0.0
23/04:30pm 25.4 23.5 7.5 32 9.6 WSW 7 11 4 6 1015.9 - 0.0
23/04:00pm 26.2 23.3 6.3 28 10.5 WNW 11 17 6 9 1015.8 - 0.0
23/03:30pm 26.1 22.4 6.2 28 10.5 WNW 15 20 8 11 1015.9 - 0.0
23/03:00pm 26.1 23.2 6.7 29 10.3 W 11 19 6 10 1015.9 1015.3 0.0
23/02:30pm 26.6 24.2 8.6 32 9.9 W 11 17 6 9 1015.9 - 0.0
23/02:00pm 26.2 23.1 8.7 33 9.7 W 15 24 8 13 1016.1 - 0.0
23/01:30pm 25.8 23.9 10.4 38 8.7 WNW 11 17 6 9 1016.3 - 0.0
23/01:00pm 25.1 23.5 10.2 39 8.4 W 9 17 5 9 1016.7 - 0.0
23/12:30pm 24.5 23.1 10.8 42 7.8 W 9 13 5 7 1017.1 - 0.0
23/12:00pm 22.8 20.8 8.5 40 7.7 SW 9 13 5 7 1017.7 1017.1 0.0
23/11:30am 22.0 20.3 8.5 42 7.3 WSW 7 11 4 6 1018.3 - 0.0
23/11:00am 21.5 19.9 8.7 44 6.9 SW 7 9 4 5 1018.6 - 0.0
23/10:30am 20.0 18.3 8.4 47 6.2 SSW 7 9 4 5 1018.8 - 0.0
23/10:00am 19.4 18.1 9.3 52 5.4 W 6 9 3 5 1019.0 - 0.0
23/09:30am 17.4 16.0 8.8 57 4.5 WSW 6 9 3 5 1019.1 - 0.0
23/09:00am 15.1 13.7 9.0 67 3.2 W 6 9 3 5 1019.4 1018.9 0.0
23/08:30am 12.8 11.8 8.7 76 2.1 W 4 7 2 4 1019.4 - 0.0
23/08:00am 11.4 10.1 9.8 90 0.8 WSW 7 9 4 5 1019.2 - 0.0
23/07:30am 9.2 7.8 8.9 98 0.1 WSW 6 9 3 5 1019.0 - 0.0
23/07:00am 6.3 4.6 6.0 98 0.1 W 4 7 2 4 1018.9 - 0.0
23/06:30am 5.5 4.4 5.2 98 0.1 CALM 0 0 0 0 1018.6 - 0.0
23/06:00am 5.2 2.8 4.3 94 0.4 NW 6 7 3 4 1018.6 1018.0 0.0
23/05:30am 6.9 4.9 6.3 96 0.3 WNW 6 7 3 4 1018.5 - 0.0
23/05:00am 7.1 4.7 6.8 98 0.1 WNW 9 11 5 6 1018.5 - 0.0
23/04:30am 6.4 4.3 6.0 97 0.2 NW 6 7 3 4 1018.6 - 0.0
23/04:00am 6.7 4.5 6.1 96 0.3 W 7 9 4 5 1018.4 - 0.0
23/03:30am 7.2 6.5 6.8 97 0.2 CALM 0 7 0 4 1018.4 - 0.0
23/03:00am 7.3 5.2 6.7 96 0.3 W 7 9 4 5 1018.3 1017.7 0.0
23/02:30am 8.2 5.6 7.8 97 0.2 WSW 11 15 6 8 1018.4 - 0.0
23/02:00am 7.5 5.3 6.3 92 0.6 WSW 7 11 4 6 1018.3 - 0.0
23/01:30am 7.6 5.0 6.1 90 0.7 SSW 9 11 5 6 1018.5 - 0.0
23/01:00am 8.6 7.6 5.5 81 1.4 CALM 0 0 0 0 1018.6 - 0.0
23/12:30am 9.5 8.6 6.0 79 1.6 NE 0 0 0 0 1018.6 - 0.0
23/12:00am 9.8 7.7 6.0 77 1.8 NE 6 7 3 4 1018.6 1018.0 0.0
 
Date/Time
EST
Temp
°C
App
Temp
°C
Dew
Point
Rel
Hum
%
Delta-T
°C
Wind Press
QNH
hPa
Press
MSL
hPa
Rain
since 9 am
mm
Dir
 
Spd
km/h
Gust
km/h
Spd
kts
Gust
kts
22/11:30pm 12.2 9.5 7.3 72 2.4 NW 11 13 6 7 1018.7 - 0.0
22/11:00pm 11.7 9.0 7.2 74 2.2 NW 11 13 6 7 1019.1 - 0.0
22/10:30pm 12.3 10.5 7.8 74 2.2 NNW 7 9 4 5 1019.1 - 0.0
22/10:00pm 11.4 9.4 7.3 76 2.0 NNW 7 9 4 5 1019.4 - 0.0
22/09:30pm 10.8 8.8 6.9 77 1.9 NNW 7 7 4 4 1019.4 - 0.0
22/09:00pm 11.8 9.8 7.1 73 2.3 NNW 7 9 4 5 1019.3 1018.8 0.0
22/08:30pm 11.7 9.7 6.4 70 2.6 NNW 6 9 3 5 1019.3 - 0.0
22/08:00pm 13.3 10.8 6.6 64 3.3 WSW 9 11 5 6 1018.9 - 0.0
22/07:30pm 14.9 12.5 7.2 60 3.9 W 9 11 5 6 1018.6 - 0.0
22/07:00pm 14.2 11.9 7.5 64 3.4 W 9 11 5 6 1018.5 - 0.0
22/06:30pm 14.7 14.3 8.2 65 3.3 CALM 0 0 0 0 1018.3 - 0.0
22/06:00pm 16.1 15.4 7.1 55 4.5 CALM 0 0 0 0 1018.0 1017.4 0.0
22/05:30pm 18.4 16.6 7.2 48 5.8 SSW 6 7 3 4 1017.8 - 0.0
22/05:00pm 20.4 18.0 7.1 42 6.9 WSW 9 13 5 7 1017.7 - 0.0
22/04:30pm 22.6 19.0 6.8 36 8.3 W 15 24 8 13 1017.6 - 0.0
22/04:00pm 23.1 19.0 6.4 34 8.7 WSW 17 24 9 13 1017.5 - 0.0
22/03:30pm 22.6 18.8 6.0 34 8.6 W 15 26 8 14 1017.6 - 0.0
22/03:00pm 23.0 18.5 6.3 34 8.7 WSW 19 30 10 16 1017.7 1017.1 0.0
22/02:30pm 24.1 19.6 6.8 33 9.1 W 20 32 11 17 1017.8 - 0.0
22/02:00pm 23.9 19.0 5.3 30 9.5 W 20 32 11 17 1017.8 - 0.0
22/01:30pm 24.3 18.6 6.6 32 9.3 WNW 26 35 14 19 1017.9 - 0.0
22/01:00pm 23.8 18.0 6.1 32 9.2 WNW 26 37 14 20 1018.2 - 0.0
22/12:30pm 23.5 19.0 6.3 33 9.0 W 19 32 10 17 1018.6 - 0.0
22/12:00pm 22.0 19.4 9.2 44 7.0 WNW 13 22 7 12 1019.3 1018.8 0.0
22/11:30am 20.7 18.2 8.4 45 6.6 W 11 17 6 9 1019.7 - 0.0
22/11:00am 18.2 16.7 9.3 56 4.8 W 7 17 4 9 1020.3 - 0.0
22/10:30am 16.9 15.6 9.8 63 3.8 WNW 7 11 4 6 1020.7 - 0.0
22/10:00am 15.4 14.4 10.2 71 2.8 W 6 9 3 5 1020.8 - 0.0
22/09:30am 13.8 12.3 9.0 73 2.5 W 7 11 4 6 1020.9 - 0.0
22/09:00am 12.6 11.1 9.2 80 1.7 SW 7 9 4 5 1021.0 1020.4 0.0
22/08:30am 11.6 11.0 10.3 92 0.7 W 4 7 2 4 1021.1 - 0.0
22/08:00am 9.8 9.8 9.7 99 0.1 CALM 0 0 0 0 1020.9 - 0.0
22/07:30am 7.3 6.7 7.2 99 0.0 CALM 0 0 0 0 1020.7 - 0.0
22/07:00am 4.1 2.8 4.0 99 0.0 CALM 0 0 0 0 1020.5 - 0.0
22/06:30am 3.7 2.3 3.6 99 0.0 CALM 0 0 0 0 1020.4 - 0.0
22/06:00am 3.5 2.1 3.4 99 0.0 CALM 0 0 0 0 1020.3 1019.7 0.0
22/05:30am 3.6 2.2 3.5 99 0.0 CALM 0 0 0 0 1020.4 - 0.0
22/05:00am 4.1 2.0 4.0 99 0.0 W 4 7 2 4 1019.9 - 0.0
22/04:30am 3.3 1.0 3.0 98 0.1 W 4 9 2 5 1020.0 - 0.0
22/04:00am 4.4 3.1 4.3 99 0.0 CALM 0 0 0 0 1019.9 - 0.0
22/03:30am 4.3 2.6 4.0 98 0.1 W 2 6 1 3 1020.0 - 0.0
22/03:00am 4.6 2.6 4.3 98 0.1 W 4 6 2 3 1020.0 1019.5 0.0
22/02:30am 5.1 2.8 4.8 98 0.1 W 6 7 3 4 1020.0 - 0.0
22/02:00am 5.2 2.9 4.9 98 0.1 W 6 7 3 4 1020.7 - 0.0
22/01:30am 4.9 2.4 4.6 98 0.1 W 7 9 4 5 1020.8 - 0.0
22/01:00am 5.4 3.0 5.1 98 0.1 WSW 7 9 4 5 1020.8 - 0.0
22/12:30am 5.4 3.2 5.1 98 0.1 W 6 7 3 4 1020.9 - 0.0
22/12:00am 6.0 3.8 5.1 94 0.4 W 6 7 3 4 1021.0 1020.4 0.0
 
Date/Time
EST
Temp
°C
App
Temp
°C
Dew
Point
Rel
Hum
%
Delta-T
°C
Wind Press
QNH
hPa
Press
MSL
hPa
Rain
since 9 am
mm
Dir
 
Spd
km/h
Gust
km/h
Spd
kts
Gust
kts
21/11:30pm 6.0 3.1 4.6 91 0.6 WSW 9 11 5 6 1021.2 - 0.0
21/11:00pm 6.9 5.7 4.7 86 1.0 CALM 0 0 0 0 1021.2 - 0.0
21/10:30pm 7.7 6.6 5.2 84 1.1 CALM 0 0 0 0 1021.4 - 0.0
21/10:00pm 8.9 7.3 6.3 84 1.2 NNE 4 6 2 3 1021.4 - 0.0
21/09:30pm 8.7 6.6 6.5 86 1.0 NNE 7 9 4 5 1021.3 - 0.0
21/09:00pm 7.2 4.7 4.5 83 1.2 N 7 11 4 6 1021.3 1020.7 0.0
21/08:30pm 9.1 6.7 5.3 77 1.8 W 7 9 4 5 1021.0 - 0.0
21/08:00pm 10.0 8.3 6.0 76 1.9 S 4 7 2 4 1020.9 - 0.0
21/07:30pm 11.2 9.8 7.1 76 2.0 W 4 7 2 4 1020.7 - 0.0
21/07:00pm 11.7 10.8 6.2 69 2.6 CALM 0 0 0 0 1020.7 - 0.0
21/06:30pm 13.0 12.4 7.2 68 2.9 CALM 0 0 0 0 1020.4 - 0.0
21/06:00pm 14.2 13.5 7.0 62 3.6 CALM 0 0 0 0 1020.1 1019.6 0.0
21/05:30pm 16.1 15.3 6.5 53 4.8 CALM 0 0 0 0 1019.8 - 0.0
21/05:00pm 18.5 17.5 5.7 43 6.4 CALM 0 6 0 3 1019.5 - 0.0
21/04:30pm 20.5 18.9 6.4 40 7.2 W 4 7 2 4 1019.3 - 0.0
21/04:00pm 21.4 19.4 6.1 37 7.8 W 6 11 3 6 1019.4 - 0.0
21/03:30pm 21.0 19.3 5.8 37 7.7 NNW 4 11 2 6 1019.2 - 0.0
21/03:00pm 20.9 18.8 5.7 37 7.7 W 6 15 3 8 1019.2 1018.7 0.0
21/02:30pm 21.5 18.9 6.2 37 7.9 NNW 9 15 5 8 1019.2 - 0.0
21/02:00pm 21.4 18.3 7.3 40 7.4 NNW 13 20 7 11 1019.4 - 0.0
21/01:30pm 20.2 17.9 5.8 39 7.3 WSW 7 13 4 7 1019.6 - 0.0
21/01:00pm 19.6 16.1 5.3 39 7.1 WNW 13 19 7 10 1020.0 - 0.0
21/12:30pm 19.8 17.3 6.5 42 6.8 WNW 9 15 5 8 1020.6 - 0.0
21/12:00pm 18.8 15.3 5.3 41 6.7 WNW 13 20 7 11 1021.1 1020.5 0.0
21/11:30am 18.3 15.0 6.2 45 6.1 W 13 22 7 12 1021.5 - 0.0
21/11:00am 18.1 15.2 6.6 47 5.8 W 11 19 6 10 1021.8 - 0.0
21/10:30am 16.8 13.5 6.6 51 5.1 W 13 20 7 11 1022.0 - 0.0
21/10:00am 16.3 12.8 5.6 49 5.2 WNW 13 17 7 9 1022.1 - 0.0
21/09:30am 14.8 12.5 7.6 62 3.6 W 9 13 5 7 1022.2 - 0.0
21/09:00am 13.6 10.7 6.5 62 3.5 WNW 11 15 6 8 1022.0 1021.5 0.0
21/08:30am 12.2 9.3 6.5 68 2.8 WNW 11 15 6 8 1021.9 - 0.0
21/08:00am 10.0 6.7 6.3 78 1.8 WNW 13 17 7 9 1021.9 - 0.0
21/07:30am 7.6 5.0 5.9 89 0.8 W 9 11 5 6 1021.6 - 0.0
21/07:00am 6.0 2.8 5.0 93 0.4 WNW 11 13 6 7 1021.3 - 0.0
21/06:30am 5.3 1.9 4.1 92 0.5 WNW 11 13 6 7 1020.9 - 0.0
21/06:00am 5.7 2.4 4.5 92 0.5 W 11 15 6 8 1020.8 1020.2 0.0
21/05:30am 5.2 2.1 3.7 90 0.6 W 9 11 5 6 1020.5 - 0.0
21/05:00am 5.8 2.8 4.1 89 0.7 W 9 13 5 7 1020.3 - 0.0
21/04:30am 5.9 2.8 3.7 86 0.9 W 9 11 5 6 1019.9 - 0.0
21/04:00am 6.9 3.6 4.7 86 1.0 W 11 15 6 8 1019.6 - 0.0
21/03:30am 6.3 3.6 3.6 83 1.2 W 7 9 4 5 1019.4 - 0.0
21/03:00am 7.5 4.2 4.3 80 1.4 WNW 11 13 6 7 1019.5 1019.0 0.0
21/02:30am 8.4 4.4 4.8 78 1.6 WNW 15 17 8 9 1019.5 - 0.0
21/02:00am 7.9 5.0 4.5 79 1.5 NW 9 13 5 7 1019.5 - 0.0
21/01:30am 7.7 4.4 4.5 80 1.4 NW 11 15 6 8 1019.6 - 0.0
21/01:00am 8.8 4.8 4.8 76 1.8 NW 15 20 8 11 1019.7 - 0.0
21/12:30am 9.1 5.2 5.3 77 1.8 WNW 15 19 8 10 1019.6 - 0.0
21/12:00am 8.7 5.1 5.1 78 1.6 NW 13 15 7 8 1019.5 1019.0 0.0
 
Date/Time
EST
Temp
°C
App
Temp
°C
Dew
Point
Rel
Hum
%
Delta-T
°C
Wind Press
QNH
hPa
Press
MSL
hPa
Rain
since 9 am
mm
Dir
 
Spd
km/h
Gust
km/h
Spd
kts
Gust
kts
20/11:30pm 9.0 5.5 5.4 78 1.7 WNW 13 17 7 9 1019.5 - 0.0
20/11:00pm 9.7 6.6 5.7 76 1.9 WNW 11 15 6 8 1019.5 - 0.0
20/10:30pm 9.7 5.9 5.7 76 1.9 NW 15 17 8 9 1019.5 - 0.0
20/10:00pm 9.8 6.0 5.8 76 1.9 NW 15 20 8 11 1019.6 - 0.0
20/09:30pm 9.9 6.1 5.9 76 1.9 NW 15 17 8 9 1019.4 - 0.0
20/09:00pm 9.8 6.0 5.6 75 2.0 NW 15 17 8 9 1019.1 1018.6 0.0
20/08:30pm 10.0 6.5 5.4 73 2.1 NW 13 15 7 8 1019.0 - 0.0
20/08:00pm 11.0 7.9 5.5 69 2.6 WNW 11 13 6 7 1018.8 - 0.0
20/07:30pm 11.4 8.2 5.3 66 2.9 WNW 11 13 6 7 1018.4 - 0.0

Other Formats:

Comma delimited format used in spreadsheet applications
http://www.bom.gov.au/fwo/IDN60801/IDN60801.95754.axf

JavaScript Object Notation format (JSON) in row-major order
http://www.bom.gov.au/fwo/IDN60801/IDN60801.95754.json